Latest Weather Observations for Archerfield

IDQ60901

Issued at 4:01 pm EST Sunday 22 October 2017 (issued every 10 minutes, with the page automatically refreshed every 10 minutes)

About weather observations | Map of Brisbane area stations | Latest observations for Brisbane area | Other Formats
Station Details ID: 040211 Name: ARCHERFIELD AIRPORT Lat: -27.57 Lon: 153.01 Height: 12.5 m
Data from the previous 72 hours. | See also: Recent months at Archerfield
Date/Time
EST
Temp
°C
App
Temp
°C
Dew
Point
°C
Rel
Hum
%
Delta-T
°C
Wind Press
QNH
hPa
Press
MSL
hPa
Rain since
9am
mm
Dir  Spd
km/h
Gust
km/h
Spd
kts
Gust
kts
22/04:00pm 24.4 22.8 12.7 48 6.7 ESE 13 28 7 15 1010.6 1010.5 0.0
22/03:30pm 25.3 23.5 10.7 40 8.2 SSE 11 20 6 11 1010.4 1010.3 0.0
22/03:00pm 24.8 22.9 9.1 37 8.5 S 9 13 5 7 1010.4 1010.3 0.0
22/02:30pm 24.4 21.9 9.6 39 8.1 SSW 13 19 7 10 1010.6 1010.5 0.0
22/02:00pm 24.9 23.1 9.6 38 8.4 ENE 9 15 5 8 1010.7 1010.6 0.0
22/01:30pm 24.0 22.6 9.6 40 7.8 SE 7 15 4 8 1011.1 1011.0 0.0
22/01:00pm 23.1 22.0 9.8 43 7.2 SE 6 9 3 5 1011.4 1011.3 0.0
22/12:30pm 23.3 20.5 10.0 43 7.3 SE 15 24 8 13 1011.8 1011.7 0.0
22/12:00pm 24.0 23.3 13.2 50 6.3 SSW 9 19 5 10 1012.2 1012.1 0.0
22/11:30am 22.8 21.2 10.3 45 6.8 SE 9 15 5 8 1012.4 1012.3 0.0
22/11:00am 22.9 21.0 11.9 50 6.2 SSE 13 19 7 10 1012.5 1012.4 0.0
22/10:30am 22.2 19.1 10.4 47 6.5 SSW 17 22 9 12 1012.8 1012.7 0.0
22/10:00am 21.8 19.3 10.9 50 6.0 SSW 15 20 8 11 1013.2 1013.1 0.0
22/09:30am 21.0 18.7 11.9 56 5.1 S 15 22 8 12 1013.5 1013.4 0.0
22/09:00am 20.1 17.9 10.8 55 5.1 SSW 13 20 7 11 1013.8 1013.7 8.6
22/08:30am 19.6 17.8 12.1 62 4.2 SW 13 17 7 9 1014.0 1013.9 8.6
22/08:00am 18.6 16.3 11.7 64 3.8 SSW 15 20 8 11 1014.0 1013.9 8.6
22/07:30am 17.4 16.3 11.9 70 3.0 SW 9 13 5 7 1014.0 1013.9 8.6
22/07:00am 16.3 14.8 11.9 75 2.4 WSW 11 15 6 8 1013.7 1013.6 8.6
22/06:30am 15.1 13.7 12.1 82 1.6 WSW 11 13 6 7 1013.4 1013.3 8.6
22/06:00am 14.0 12.8 11.5 85 1.3 W 9 15 5 8 1013.1 1013.0 8.6
22/05:30am 12.9 12.0 11.3 90 0.8 SW 7 9 4 5 1013.0 1012.9 8.6
22/05:00am 12.5 11.1 10.9 90 0.8 WSW 9 13 5 7 1012.9 1012.8 8.4
22/04:30am 12.7 11.4 11.3 91 0.7 WSW 9 13 5 7 1012.8 1012.7 8.4
22/04:00am 12.6 11.2 10.8 89 0.9 WSW 9 11 5 6 1012.7 1012.6 8.4
22/03:30am 13.1 11.5 11.5 90 0.8 WSW 11 17 6 9 1012.6 1012.5 8.4
22/03:00am 13.0 12.1 11.4 90 0.8 WSW 7 9 4 5 1012.8 1012.7 8.4
22/02:30am 13.2 12.6 11.6 90 0.9 SW 6 9 3 5 1013.1 1013.0 8.4
22/02:00am 13.1 12.3 11.7 91 0.7 WSW 7 9 4 5 1013.1 1013.0 8.4
22/01:30am 13.3 12.8 11.9 91 0.7 WSW 6 7 3 4 1013.5 1013.4 8.4
22/01:00am 13.4 12.3 11.8 90 0.9 W 9 13 5 7 1013.7 1013.6 8.4
22/12:30am 13.5 12.4 12.1 91 0.8 W 9 11 5 6 1014.0 1013.9 8.4
22/12:00am 13.7 12.4 12.4 92 0.7 WSW 11 13 6 7 1014.3 1014.2 8.4
 
Date/Time
EST
Temp
°C
App
Temp
°C
Dew
Point
°C
Rel
Hum
%
Delta-T
°C
Wind Press
QNH
hPa
Press
MSL
hPa
Rain since
9am
mm
Dir  Spd
km/h
Gust
km/h
Spd
kts
Gust
kts
21/11:30pm 13.3 12.4 11.5 89 1.0 WNW 7 9 4 5 1014.5 1014.4 8.4
21/11:00pm 14.0 13.0 12.2 89 1.0 W 9 11 5 6 1014.6 1014.5 8.4
21/10:30pm 14.5 13.6 12.7 89 1.0 SW 9 11 5 6 1014.8 1014.7 8.4
21/10:00pm 15.2 15.0 12.9 86 1.3 WSW 6 7 3 4 1015.1 1015.0 8.4
21/09:30pm 15.5 14.5 13.3 87 1.2 SW 11 17 6 9 1015.1 1015.0 8.4
21/09:00pm 15.5 14.3 13.9 90 0.9 SW 13 17 7 9 1015.4 1015.3 8.4
21/08:30pm 15.5 14.7 14.0 91 0.8 SW 11 13 6 7 1015.6 1015.5 8.4
21/08:00pm 15.6 15.8 14.1 91 0.8 WSW 6 7 3 4 1015.6 1015.5 8.4
21/07:30pm 15.8 16.0 14.2 90 0.9 WSW 6 7 3 4 1015.2 1015.1 8.4
21/07:00pm 16.0 15.7 14.5 91 0.9 W 9 11 5 6 1015.2 1015.1 8.4
21/06:30pm 15.8 15.5 14.3 91 0.9 S 9 13 5 7 1014.6 1014.5 8.4
21/06:06pm 15.8 14.7 14.3 91 0.9 SW 13 17 7 9 1014.7 1014.6 8.2
21/06:00pm 15.9 14.8 14.4 91 0.9 SSW 13 17 7 9 1014.6 1014.5 8.2
21/05:38pm 16.0 15.0 14.7 92 0.7 SW 13 19 7 10 1014.6 1014.5 8.2
21/05:30pm 16.2 16.1 14.9 92 0.7 SW 9 19 5 10 1014.5 1014.4 8.2
21/05:00pm 16.3 16.7 14.8 91 0.9 S 6 9 3 5 1014.0 1013.9 8.0
21/04:30pm 16.3 16.1 14.7 90 0.9 SSW 9 13 5 7 1013.9 1013.8 7.4
21/04:00pm 16.4 15.9 14.9 91 0.9 SW 11 19 6 10 1014.3 1014.2 7.0
21/03:30pm 16.6 15.8 15.1 91 0.9 SSW 13 19 7 10 1014.4 1014.3 6.4
21/03:00pm 16.6 15.8 15.1 91 0.9 SSW 13 17 7 9 1014.4 1014.3 5.2
21/02:30pm 16.4 15.5 14.9 91 0.9 SSW 13 20 7 11 1014.3 1014.2 4.2
21/02:00pm 16.7 14.8 15.1 90 0.9 SSW 19 24 10 13 1014.6 1014.5 3.2
21/01:30pm 17.2 15.2 15.0 87 1.3 SSW 19 30 10 16 1014.6 1014.5 2.8
21/01:00pm 17.9 16.5 15.5 86 1.4 SSW 17 20 9 11 1014.7 1014.6 2.2
21/12:34pm 18.0 17.5 15.8 87 1.3 SSW 13 19 7 10 1014.9 1014.8 2.0
21/12:30pm 18.0 17.5 15.8 87 1.3 SSW 13 19 7 10 1014.9 1014.8 1.8
21/12:00pm 18.2 18.0 16.7 91 0.9 SSW 13 17 7 9 1015.0 1014.9 1.8
21/11:30am 17.7 16.9 16.2 91 0.9 S 15 19 8 10 1015.4 1015.3 1.2
21/11:00am 18.5 18.8 17.0 91 0.9 ESE 11 17 6 9 1015.7 1015.6 0.2
21/10:49am 18.2 18.4 16.7 91 0.9 SE 11 17 6 9 1015.9 1015.8 0.2
21/10:30am 18.1 17.8 16.4 90 1.0 SE 13 17 7 9 1016.2 1016.1 0.0
21/10:20am 18.0 16.8 16.2 89 1.1 SE 17 22 9 12 1016.3 1016.2 0.0
21/10:00am 18.7 18.2 16.9 89 1.1 SE 15 30 8 16 1016.3 1016.2 0.0
21/09:42am 19.0 19.9 17.5 91 0.9 SE 9 13 5 7 1016.2 1016.1 0.0
21/09:30am 18.9 19.3 17.2 90 1.0 SE 11 15 6 8 1016.2 1016.1 0.0
21/09:00am 18.7 19.5 17.2 91 0.9 SE 9 13 5 7 1016.4 1016.3 4.8
21/08:30am 18.5 18.8 17.0 91 0.9 SE 11 15 6 8 1016.4 1016.3 3.8
21/08:00am 18.7 19.1 17.2 91 0.9 ESE 11 15 6 8 1015.8 1015.7 3.0
21/07:30am 18.3 18.5 16.8 91 0.9 SSE 11 15 6 8 1015.9 1015.8 2.2
21/07:00am 18.5 19.1 16.7 89 1.1 SE 9 11 5 6 1015.7 1015.6 1.0
21/06:30am 18.4 19.4 16.4 88 1.2 SSW 6 7 3 4 1015.8 1015.7 0.6
21/06:00am 18.5 19.2 16.1 86 1.4 SW 7 9 4 5 1015.8 1015.7 0.0
21/05:30am 18.3 19.2 16.1 87 1.3 W 6 9 3 5 1015.5 1015.4 0.0
21/05:00am 18.2 19.0 15.8 86 1.4 WSW 6 9 3 5 1015.0 1014.9 0.0
21/04:30am 18.3 20.1 15.6 84 1.6 CALM 0 6 0 3 1014.5 1014.4 0.0
21/04:00am 18.3 20.1 15.4 83 1.7 CALM 0 0 0 0 1014.4 1014.3 0.0
21/03:30am 18.0 19.0 15.3 84 1.6 WNW 4 7 2 4 1014.8 1014.7 0.0
21/03:00am 18.5 19.2 15.6 83 1.7 WSW 6 11 3 6 1014.5 1014.4 0.0
21/02:30am 19.1 21.1 16.0 82 1.8 CALM 0 0 0 0 1014.9 1014.8 0.0
21/02:00am 18.7 19.5 15.8 83 1.7 SSE 6 7 3 4 1014.9 1014.8 0.0
21/01:30am 19.3 21.1 15.6 79 2.2 CALM 0 0 0 0 1015.4 1015.3 0.0
21/01:00am 19.3 21.0 15.2 77 2.4 CALM 0 0 0 0 1015.7 1015.6 0.0
21/12:30am 19.5 20.2 15.6 78 2.3 NNE 6 7 3 4 1016.2 1016.1 0.0
21/12:00am 19.2 19.6 15.3 78 2.3 NNW 7 11 4 6 1016.4 1016.3 0.0
 
Date/Time
EST
Temp
°C
App
Temp
°C
Dew
Point
°C
Rel
Hum
%
Delta-T
°C
Wind Press
QNH
hPa
Press
MSL
hPa
Rain since
9am
mm
Dir  Spd
km/h
Gust
km/h
Spd
kts
Gust
kts
20/11:30pm 19.5 19.5 15.2 76 2.5 N 9 13 5 7 1016.7 1016.6 0.0
20/11:00pm 19.7 18.5 15.1 75 2.7 N 15 19 8 10 1016.9 1016.8 0.0
20/10:30pm 19.8 19.2 15.7 77 2.4 N 13 20 7 11 1017.1 1017.0 0.0
20/10:00pm 19.3 19.5 15.8 80 2.1 NNE 9 13 5 7 1017.3 1017.2 0.0
20/09:30pm 19.4 19.1 15.5 78 2.3 NNE 11 13 6 7 1017.4 1017.3 0.0
20/09:00pm 19.8 19.1 15.4 76 2.6 NNE 13 19 7 10 1017.5 1017.4 0.0
20/08:30pm 20.0 19.3 15.4 75 2.7 NNE 13 17 7 9 1017.5 1017.4 0.0
20/08:00pm 20.6 19.5 15.4 72 3.1 NNE 15 19 8 10 1017.6 1017.5 0.0
20/07:30pm 20.9 19.6 15.9 73 3.0 NNE 17 22 9 12 1017.4 1017.3 0.0
20/07:00pm 21.2 19.5 16.2 73 3.0 NNE 20 24 11 13 1017.3 1017.2 0.0
20/06:30pm 21.3 19.0 15.6 70 3.4 NNE 22 30 12 16 1017.1 1017.0 0.0
20/06:00pm 21.9 19.8 15.3 66 3.9 NNE 20 28 11 15 1017.1 1017.0 0.0
20/05:30pm 22.8 20.4 14.4 59 4.9 NNE 20 28 11 15 1016.9 1016.8 0.0
20/05:00pm 23.8 20.5 13.9 54 5.8 NNE 24 28 13 15 1016.8 1016.7 0.0
20/04:30pm 24.6 22.2 14.4 53 6.0 NNE 20 28 11 15 1016.8 1016.7 0.0
20/04:00pm 24.9 22.7 15.0 54 5.9 NNE 20 28 11 15 1016.9 1016.8 0.0
20/03:30pm 25.4 23.7 16.3 57 5.6 NNE 20 28 11 15 1017.0 1016.9 0.0
20/03:00pm 25.2 23.3 15.2 54 6.0 NE 19 26 10 14 1017.2 1017.1 0.0
20/02:30pm 24.8 23.6 16.0 58 5.4 NNE 17 22 9 12 1017.6 1017.5 0.0
20/02:00pm 25.3 24.0 15.9 56 5.7 NNE 17 22 9 12 1018.1 1018.0 0.0
20/01:30pm 25.3 24.1 15.0 53 6.2 N 15 22 8 12 1018.5 1018.4 0.0
20/01:00pm 24.9 23.2 14.7 53 6.1 N 17 22 9 12 1018.9 1018.8 0.0
20/12:30pm 25.4 23.6 14.5 51 6.5 N 17 24 9 13 1019.3 1019.2 0.0
20/12:00pm 25.2 23.7 14.3 50 6.5 NNE 15 22 8 12 1019.7 1019.6 0.0
20/11:30am 26.9 27.0 17.4 56 6.0 NNE 13 24 7 13 1020.1 1020.0 0.0
20/11:00am 25.1 24.8 15.4 55 5.8 NNE 11 22 6 12 1020.6 1020.5 0.0
20/10:30am 24.1 23.2 14.8 56 5.5 NNE 13 19 7 10 1021.2 1021.1 0.0
20/10:00am 23.2 22.9 15.5 62 4.6 N 11 17 6 9 1021.5 1021.4 0.0
20/09:30am 23.2 21.8 15.5 62 4.6 NE 17 24 9 13 1021.5 1021.4 0.0
20/09:00am 24.1 24.2 16.4 62 4.7 NE 11 22 6 12 1021.7 1021.6 0.0
20/08:30am 23.1 24.5 16.4 66 4.1 SE 4 9 2 5 1021.7 1021.6 0.0
20/08:00am 21.0 22.6 16.0 73 3.0 S 2 7 1 4 1022.0 1021.9 0.0
20/07:30am 20.0 20.8 15.8 77 2.5 SSW 6 9 3 5 1022.0 1021.9 0.0
20/07:00am 18.5 19.2 15.7 84 1.6 SSW 6 7 3 4 1022.0 1021.9 0.0
20/06:30am 17.5 17.8 15.1 86 1.4 WSW 7 9 4 5 1022.1 1022.0 0.0
20/06:00am 17.4 17.8 15.2 87 1.3 S 7 9 4 5 1021.8 1021.7 0.0
20/05:30am 17.1 17.1 15.3 89 1.0 SE 9 13 5 7 1021.6 1021.5 0.0
20/05:00am 16.9 16.9 15.1 89 1.0 S 9 11 5 6 1021.4 1021.3 0.0
20/04:30am 17.1 17.5 15.3 89 1.0 S 7 11 4 6 1021.4 1021.3 0.0
20/04:00am 16.9 17.8 15.1 89 1.0 S 4 7 2 4 1021.2 1021.1 0.0
20/03:30am 17.0 18.3 15.2 89 1.0 S 2 7 1 4 1021.1 1021.0 0.0
20/03:00am 17.4 17.8 15.4 88 1.2 SSE 7 11 4 6 1021.1 1021.0 0.0
20/02:30am 17.8 18.3 15.6 87 1.3 S 7 13 4 7 1021.4 1021.3 0.0
20/02:00am 17.9 17.5 16.1 89 1.1 S 13 17 7 9 1021.8 1021.7 0.0
20/01:30am 17.9 17.9 16.2 90 1.0 S 11 13 6 7 1022.1 1022.0 0.0
20/01:00am 17.7 18.3 15.7 88 1.2 SSW 7 9 4 5 1022.4 1022.3 0.0
20/12:30am 18.4 19.1 16.0 86 1.4 S 7 9 4 5 1022.8 1022.7 0.0
20/12:00am 18.9 20.2 16.1 84 1.7 S 4 6 2 3 1023.4 1023.3 0.0
 
Date/Time
EST
Temp
°C
App
Temp
°C
Dew
Point
°C
Rel
Hum
%
Delta-T
°C
Wind Press
QNH
hPa
Press
MSL
hPa
Rain since
9am
mm
Dir  Spd
km/h
Gust
km/h
Spd
kts
Gust
kts
19/11:30pm 19.0 20.6 16.0 83 1.8 SSE 2 7 1 4 1023.8 1023.7 0.0
19/11:00pm 19.7 20.3 15.8 78 2.3 ENE 7 11 4 6 1024.1 1024.0 0.0
19/10:30pm 20.0 20.9 16.2 79 2.3 ENE 6 9 3 5 1024.4 1024.3 0.0
19/10:00pm 19.5 20.4 16.2 81 2.0 SSE 6 7 3 4 1024.6 1024.5 0.0
19/09:30pm 19.2 21.2 15.9 81 2.0 CALM 0 6 0 3 1024.7 1024.6 0.0
19/09:00pm 19.2 19.6 15.3 78 2.3 ENE 7 9 4 5 1024.8 1024.7 0.0
19/08:30pm 19.3 19.7 15.2 77 2.4 ENE 7 9 4 5 1024.8 1024.7 0.0
19/08:00pm 20.0 20.0 15.2 74 2.8 ENE 9 11 5 6 1024.6 1024.5 0.0
19/07:30pm 20.6 20.7 15.4 72 3.1 ENE 9 13 5 7 1024.5 1024.4 0.0
19/07:00pm 21.0 21.0 15.3 70 3.4 E 9 13 5 7 1024.3 1024.2 0.0
19/06:30pm 21.1 20.3 15.0 68 3.6 E 13 17 7 9 1024.1 1024.0 0.0
19/06:00pm 21.4 20.5 14.8 66 3.9 E 13 20 7 11 1023.9 1023.8 0.0
19/05:30pm 22.1 20.4 14.7 63 4.4 E 17 24 9 13 1023.5 1023.4 0.0
19/05:00pm 22.3 19.9 14.4 61 4.6 E 20 26 11 14 1023.2 1023.1 0.0
19/04:30pm 23.0 21.3 14.6 59 5.0 ENE 17 22 9 12 1023.1 1023.0 0.0

Latest Capital City Observations: Canberra | Sydney | Melbourne | Brisbane | Adelaide | Perth | Hobart | Darwin

Other Formats:

Comma delimited format used in spreadsheet applications
http://www.bom.gov.au/fwo/IDQ60901/IDQ60901.94575.axf

JavaScript Object Notation format (JSON) in row-major order
http://www.bom.gov.au/fwo/IDQ60901/IDQ60901.94575.json